sensor_id;sensor_type;location;lat;lon;timestamp;pressure;altitude;pressure_sealevel;temperature;humidity
80620;BME280;69979;53.682;-2.690;2024-02-15T00:00:53;100332.74;;;8.33;89.36
80620;BME280;69979;53.682;-2.690;2024-02-15T00:03:17;100337.42;;;8.63;89.04
80620;BME280;69979;53.682;-2.690;2024-02-15T00:05:44;100335.93;;;8.83;90.13
80620;BME280;69979;53.682;-2.690;2024-02-15T00:08:08;100332.97;;;8.58;89.61
80620;BME280;69979;53.682;-2.690;2024-02-15T00:10:34;100336.25;;;8.57;90.28
80620;BME280;69979;53.682;-2.690;2024-02-15T00:12:59;100333.32;;;9.10;87.76
80620;BME280;69979;53.682;-2.690;2024-02-15T00:15:25;100327.07;;;8.49;90.17
80620;BME280;69979;53.682;-2.690;2024-02-15T00:17:50;100326.52;;;7.72;92.86
80620;BME280;69979;53.682;-2.690;2024-02-15T00:20:16;100328.12;;;7.94;93.58
80620;BME280;69979;53.682;-2.690;2024-02-15T00:22:41;100325.23;;;8.06;94.42
80620;BME280;69979;53.682;-2.690;2024-02-15T00:25:07;100325.08;;;8.02;93.88
80620;BME280;69979;53.682;-2.690;2024-02-15T00:27:32;100328.33;;;7.94;94.62
80620;BME280;69979;53.682;-2.690;2024-02-15T00:29:58;100327.22;;;8.02;93.84
80620;BME280;69979;53.682;-2.690;2024-02-15T00:32:24;100331.47;;;8.42;93.56
80620;BME280;69979;53.682;-2.690;2024-02-15T00:34:49;100334.43;;;8.62;92.59
80620;BME280;69979;53.682;-2.690;2024-02-15T00:37:14;100334.75;;;8.53;92.40
80620;BME280;69979;53.682;-2.690;2024-02-15T00:39:40;100332.95;;;8.92;89.82
80620;BME280;69979;53.682;-2.690;2024-02-15T00:42:05;100332.83;;;8.22;91.29
80620;BME280;69979;53.682;-2.690;2024-02-15T00:44:31;100333.76;;;8.62;91.11
80620;BME280;69979;53.682;-2.690;2024-02-15T00:46:56;100333.92;;;8.84;90.48
80620;BME280;69979;53.682;-2.690;2024-02-15T00:49:22;100329.73;;;8.52;92.27
80620;BME280;69979;53.682;-2.690;2024-02-15T00:51:47;100329.25;;;8.68;91.84
80620;BME280;69979;53.682;-2.690;2024-02-15T00:54:13;100327.87;;;9.31;89.57
80620;BME280;69979;53.682;-2.690;2024-02-15T00:56:38;100322.30;;;8.94;88.82
80620;BME280;69979;53.682;-2.690;2024-02-15T00:59:05;100321.24;;;9.20;87.97
80620;BME280;69979;53.682;-2.690;2024-02-15T01:01:30;100321.18;;;8.51;90.91
80620;BME280;69979;53.682;-2.690;2024-02-15T01:03:55;100324.87;;;9.10;89.43
80620;BME280;69979;53.682;-2.690;2024-02-15T01:06:20;100321.50;;;9.39;87.99
80620;BME280;69979;53.682;-2.690;2024-02-15T01:08:46;100320.01;;;9.54;87.18
80620;BME280;69979;53.682;-2.690;2024-02-15T01:11:11;100323.24;;;9.05;89.68
80620;BME280;69979;53.682;-2.690;2024-02-15T01:13:37;100319.12;;;8.94;88.57
80620;BME280;69979;53.682;-2.690;2024-02-15T01:16:03;100321.24;;;8.54;90.37
80620;BME280;69979;53.682;-2.690;2024-02-15T01:18:28;100320.63;;;9.08;89.66
80620;BME280;69979;53.682;-2.690;2024-02-15T01:20:54;100315.90;;;8.73;89.86
80620;BME280;69979;53.682;-2.690;2024-02-15T01:23:19;100319.30;;;9.20;89.17
80620;BME280;69979;53.682;-2.690;2024-02-15T01:25:45;100320.95;;;8.80;88.36
80620;BME280;69979;53.682;-2.690;2024-02-15T01:28:10;100325.54;;;9.56;86.85
80620;BME280;69979;53.682;-2.690;2024-02-15T01:30:35;100321.75;;;10.13;85.09
80620;BME280;69979;53.682;-2.690;2024-02-15T01:33:01;100323.16;;;8.89;88.22
80620;BME280;69979;53.682;-2.690;2024-02-15T01:35:27;100321.57;;;8.71;89.32
80620;BME280;69979;53.682;-2.690;2024-02-15T01:37:52;100323.92;;;8.95;89.35
80620;BME280;69979;53.682;-2.690;2024-02-15T01:40:17;100320.86;;;8.95;89.36
80620;BME280;69979;53.682;-2.690;2024-02-15T01:42:45;100316.12;;;8.71;91.31
80620;BME280;69979;53.682;-2.690;2024-02-15T01:45:08;100312.34;;;8.21;92.22
80620;BME280;69979;53.682;-2.690;2024-02-15T01:47:33;100305.74;;;8.38;92.13
80620;BME280;69979;53.682;-2.690;2024-02-15T01:49:59;100303.05;;;8.99;90.28
80620;BME280;69979;53.682;-2.690;2024-02-15T01:52:24;100309.33;;;8.73;91.22
80620;BME280;69979;53.682;-2.690;2024-02-15T01:54:51;100306.88;;;9.09;89.60
80620;BME280;69979;53.682;-2.690;2024-02-15T01:57:15;100300.70;;;9.03;90.28
80620;BME280;69979;53.682;-2.690;2024-02-15T01:59:40;100296.32;;;8.54;91.94
80620;BME280;69979;53.682;-2.690;2024-02-15T02:02:08;100295.33;;;8.68;90.98
80620;BME280;69979;53.682;-2.690;2024-02-15T02:04:31;100300.12;;;8.85;91.27
80620;BME280;69979;53.682;-2.690;2024-02-15T02:06:57;100306.59;;;9.02;90.17
80620;BME280;69979;53.682;-2.690;2024-02-15T02:09:22;100298.17;;;9.38;88.47
80620;BME280;69979;53.682;-2.690;2024-02-15T02:11:48;100296.02;;;9.17;89.82
80620;BME280;69979;53.682;-2.690;2024-02-15T02:14:13;100293.25;;;8.25;91.92
80620;BME280;69979;53.682;-2.690;2024-02-15T02:16:38;100289.48;;;8.56;91.30
80620;BME280;69979;53.682;-2.690;2024-02-15T02:19:04;100279.96;;;9.34;88.85
80620;BME280;69979;53.682;-2.690;2024-02-15T02:21:30;100274.21;;;9.05;88.88
80620;BME280;69979;53.682;-2.690;2024-02-15T02:23:57;100276.77;;;9.16;88.70
80620;BME280;69979;53.682;-2.690;2024-02-15T02:26:21;100274.87;;;9.36;87.81
80620;BME280;69979;53.682;-2.690;2024-02-15T02:28:46;100269.84;;;9.27;89.00
80620;BME280;69979;53.682;-2.690;2024-02-15T02:31:12;100276.04;;;9.33;88.54
80620;BME280;69979;53.682;-2.690;2024-02-15T02:33:37;100268.02;;;9.17;89.96
80620;BME280;69979;53.682;-2.690;2024-02-15T02:36:03;100265.25;;;8.56;90.86
80620;BME280;69979;53.682;-2.690;2024-02-15T02:38:28;100262.97;;;9.26;88.72
80620;BME280;69979;53.682;-2.690;2024-02-15T02:40:53;100260.94;;;8.82;90.16
80620;BME280;69979;53.682;-2.690;2024-02-15T02:43:19;100267.60;;;9.29;88.86
80620;BME280;69979;53.682;-2.690;2024-02-15T02:45:44;100264.57;;;9.66;87.17
80620;BME280;69979;53.682;-2.690;2024-02-15T02:48:10;100258.66;;;9.12;87.88
80620;BME280;69979;53.682;-2.690;2024-02-15T02:50:35;100259.05;;;9.13;88.67
80620;BME280;69979;53.682;-2.690;2024-02-15T02:53:01;100259.46;;;8.76;90.99
80620;BME280;69979;53.682;-2.690;2024-02-15T02:55:26;100254.84;;;9.14;89.26
80620;BME280;69979;53.682;-2.690;2024-02-15T02:57:51;100252.62;;;9.12;89.28
80620;BME280;69979;53.682;-2.690;2024-02-15T03:00:18;100250.90;;;9.66;86.65
80620;BME280;69979;53.682;-2.690;2024-02-15T03:02:43;100249.79;;;8.84;90.09
80620;BME280;69979;53.682;-2.690;2024-02-15T03:05:08;100242.04;;;8.80;89.64
80620;BME280;69979;53.682;-2.690;2024-02-15T03:07:34;100239.95;;;8.78;90.35
80620;BME280;69979;53.682;-2.690;2024-02-15T03:09:59;100236.62;;;8.20;92.07
80620;BME280;69979;53.682;-2.690;2024-02-15T03:12:24;100236.01;;;8.65;91.56
80620;BME280;69979;53.682;-2.690;2024-02-15T03:14:50;100236.13;;;9.35;89.40
80620;BME280;69979;53.682;-2.690;2024-02-15T03:17:15;100237.60;;;9.30;88.62
80620;BME280;69979;53.682;-2.690;2024-02-15T03:19:40;100237.03;;;9.76;87.16
80620;BME280;69979;53.682;-2.690;2024-02-15T03:22:06;100234.07;;;9.32;87.28
80620;BME280;69979;53.682;-2.690;2024-02-15T03:24:31;100236.89;;;9.61;86.99
80620;BME280;69979;53.682;-2.690;2024-02-15T03:26:56;100237.56;;;9.01;88.17
80620;BME280;69979;53.682;-2.690;2024-02-15T03:29:22;100235.04;;;8.90;89.46
80620;BME280;69979;53.682;-2.690;2024-02-15T03:31:47;100228.19;;;8.78;90.40
80620;BME280;69979;53.682;-2.690;2024-02-15T03:34:13;100225.11;;;8.80;90.52
80620;BME280;69979;53.682;-2.690;2024-02-15T03:36:38;100229.58;;;9.03;90.84
80620;BME280;69979;53.682;-2.690;2024-02-15T03:39:03;100228.10;;;8.90;91.21
80620;BME280;69979;53.682;-2.690;2024-02-15T03:41:29;100232.36;;;8.42;92.16
80620;BME280;69979;53.682;-2.690;2024-02-15T03:43:54;100227.91;;;8.85;90.19
80620;BME280;69979;53.682;-2.690;2024-02-15T03:46:20;100225.57;;;8.57;90.34
80620;BME280;69979;53.682;-2.690;2024-02-15T03:48:46;100223.41;;;8.41;91.83
80620;BME280;69979;53.682;-2.690;2024-02-15T03:51:11;100217.74;;;8.94;90.73
80620;BME280;69979;53.682;-2.690;2024-02-15T03:53:37;100220.11;;;9.06;88.50
80620;BME280;69979;53.682;-2.690;2024-02-15T03:56:03;100216.19;;;9.71;87.63
80620;BME280;69979;53.682;-2.690;2024-02-15T03:58:28;100216.96;;;9.27;88.00
80620;BME280;69979;53.682;-2.690;2024-02-15T04:00:53;100213.42;;;9.14;88.96
80620;BME280;69979;53.682;-2.690;2024-02-15T04:03:19;100214.08;;;8.93;90.06
80620;BME280;69979;53.682;-2.690;2024-02-15T04:05:44;100216.20;;;9.24;88.73
80620;BME280;69979;53.682;-2.690;2024-02-15T04:08:10;100213.63;;;9.28;88.69
80620;BME280;69979;53.682;-2.690;2024-02-15T04:10:36;100212.85;;;9.01;89.11
80620;BME280;69979;53.682;-2.690;2024-02-15T04:13:01;100216.51;;;9.68;87.52
80620;BME280;69979;53.682;-2.690;2024-02-15T04:15:26;100215.64;;;9.71;87.17
80620;BME280;69979;53.682;-2.690;2024-02-15T04:17:52;100209.78;;;9.36;87.92
80620;BME280;69979;53.682;-2.690;2024-02-15T04:20:18;100210.91;;;9.80;86.52
80620;BME280;69979;53.682;-2.690;2024-02-15T04:22:43;100209.97;;;9.55;87.41
80620;BME280;69979;53.682;-2.690;2024-02-15T04:25:09;100204.21;;;9.08;88.28
80620;BME280;69979;53.682;-2.690;2024-02-15T04:27:34;100207.69;;;9.18;88.72
80620;BME280;69979;53.682;-2.690;2024-02-15T04:30:00;100202.85;;;9.08;89.83
80620;BME280;69979;53.682;-2.690;2024-02-15T04:32:25;100196.58;;;8.80;90.15
80620;BME280;69979;53.682;-2.690;2024-02-15T04:34:51;100188.02;;;8.96;89.62
80620;BME280;69979;53.682;-2.690;2024-02-15T04:37:16;100193.38;;;9.05;89.20
80620;BME280;69979;53.682;-2.690;2024-02-15T04:39:42;100196.49;;;8.69;90.60
80620;BME280;69979;53.682;-2.690;2024-02-15T04:42:07;100183.65;;;9.19;89.48
80620;BME280;69979;53.682;-2.690;2024-02-15T04:44:32;100186.21;;;9.02;90.58
80620;BME280;69979;53.682;-2.690;2024-02-15T04:46:58;100187.48;;;8.62;91.28
80620;BME280;69979;53.682;-2.690;2024-02-15T04:49:23;100186.45;;;8.98;91.18
80620;BME280;69979;53.682;-2.690;2024-02-15T04:51:49;100191.25;;;9.13;90.99
80620;BME280;69979;53.682;-2.690;2024-02-15T04:54:15;100185.94;;;9.67;89.35
80620;BME280;69979;53.682;-2.690;2024-02-15T04:56:41;100176.84;;;9.04;89.96
80620;BME280;69979;53.682;-2.690;2024-02-15T04:59:06;100177.10;;;9.05;89.85
80620;BME280;69979;53.682;-2.690;2024-02-15T05:01:31;100174.64;;;9.33;89.88
80620;BME280;69979;53.682;-2.690;2024-02-15T05:03:57;100171.72;;;9.47;88.74
80620;BME280;69979;53.682;-2.690;2024-02-15T05:06:22;100162.10;;;9.78;87.80
80620;BME280;69979;53.682;-2.690;2024-02-15T05:08:48;100158.51;;;9.87;87.29
80620;BME280;69979;53.682;-2.690;2024-02-15T05:11:13;100148.90;;;9.45;88.47
80620;BME280;69979;53.682;-2.690;2024-02-15T05:13:39;100151.20;;;9.17;89.76
80620;BME280;69979;53.682;-2.690;2024-02-15T05:16:05;100151.89;;;9.36;89.23
80620;BME280;69979;53.682;-2.690;2024-02-15T05:18:30;100159.75;;;9.77;88.00
80620;BME280;69979;53.682;-2.690;2024-02-15T05:20:55;100147.26;;;10.48;84.58
80620;BME280;69979;53.682;-2.690;2024-02-15T05:23:21;100139.01;;;9.76;87.26
80620;BME280;69979;53.682;-2.690;2024-02-15T05:25:46;100132.29;;;9.44;88.00
80620;BME280;69979;53.682;-2.690;2024-02-15T05:28:11;100129.31;;;9.30;88.91
80620;BME280;69979;53.682;-2.690;2024-02-15T05:30:36;100126.16;;;9.11;89.82
80620;BME280;69979;53.682;-2.690;2024-02-15T05:33:02;100131.38;;;9.54;88.42
80620;BME280;69979;53.682;-2.690;2024-02-15T05:35:27;100125.49;;;9.80;87.63
80620;BME280;69979;53.682;-2.690;2024-02-15T05:37:52;100119.65;;;9.29;88.04
80620;BME280;69979;53.682;-2.690;2024-02-15T05:40:18;100116.62;;;8.53;91.81
80620;BME280;69979;53.682;-2.690;2024-02-15T05:42:44;100110.80;;;8.72;91.99
80620;BME280;69979;53.682;-2.690;2024-02-15T05:45:29;100116.72;;;9.23;90.63
80620;BME280;69979;53.682;-2.690;2024-02-15T05:47:34;100116.12;;;9.10;90.18
80620;BME280;69979;53.682;-2.690;2024-02-15T05:50:00;100111.29;;;8.79;92.32
80620;BME280;69979;53.682;-2.690;2024-02-15T05:52:25;100112.19;;;8.62;92.86
80620;BME280;69979;53.682;-2.690;2024-02-15T05:54:50;100108.29;;;8.81;93.55
80620;BME280;69979;53.682;-2.690;2024-02-15T05:57:15;100104.42;;;8.66;94.15
80620;BME280;69979;53.682;-2.690;2024-02-15T05:59:42;100101.84;;;8.50;93.33
80620;BME280;69979;53.682;-2.690;2024-02-15T06:02:07;100101.32;;;8.75;93.23
80620;BME280;69979;53.682;-2.690;2024-02-15T06:04:33;100102.82;;;9.37;91.44
80620;BME280;69979;53.682;-2.690;2024-02-15T06:06:58;100098.22;;;9.15;90.64
80620;BME280;69979;53.682;-2.690;2024-02-15T06:09:23;100087.24;;;8.75;91.51
80620;BME280;69979;53.682;-2.690;2024-02-15T06:11:49;100080.61;;;8.31;93.24
80620;BME280;69979;53.682;-2.690;2024-02-15T06:14:14;100076.08;;;8.11;95.41
80620;BME280;69979;53.682;-2.690;2024-02-15T06:16:43;100066.36;;;8.51;93.92
80620;BME280;69979;53.682;-2.690;2024-02-15T06:19:05;100071.01;;;8.52;94.83
80620;BME280;69979;53.682;-2.690;2024-02-15T06:21:31;100068.52;;;8.37;94.72
80620;BME280;69979;53.682;-2.690;2024-02-15T06:23:56;100057.51;;;8.58;93.47
80620;BME280;69979;53.682;-2.690;2024-02-15T06:26:22;100061.35;;;7.82;95.41
80620;BME280;69979;53.682;-2.690;2024-02-15T06:28:48;100070.66;;;8.89;93.28
80620;BME280;69979;53.682;-2.690;2024-02-15T06:31:14;100065.79;;;8.55;93.60
80620;BME280;69979;53.682;-2.690;2024-02-15T06:33:39;100065.31;;;8.75;93.50
80620;BME280;69979;53.682;-2.690;2024-02-15T06:36:05;100072.12;;;8.62;94.90
80620;BME280;69979;53.682;-2.690;2024-02-15T06:38:30;100072.24;;;8.12;96.33
80620;BME280;69979;53.682;-2.690;2024-02-15T06:40:55;100066.47;;;8.73;95.87
80620;BME280;69979;53.682;-2.690;2024-02-15T06:43:21;100062.91;;;8.38;94.55
80620;BME280;69979;53.682;-2.690;2024-02-15T06:45:47;100066.62;;;8.20;96.93
80620;BME280;69979;53.682;-2.690;2024-02-15T06:48:12;100061.91;;;8.05;97.56
80620;BME280;69979;53.682;-2.690;2024-02-15T06:50:38;100066.73;;;8.09;98.13
80620;BME280;69979;53.682;-2.690;2024-02-15T06:53:03;100066.17;;;8.01;97.79
80620;BME280;69979;53.682;-2.690;2024-02-15T06:55:29;100061.88;;;8.20;96.88
80620;BME280;69979;53.682;-2.690;2024-02-15T06:57:55;100061.13;;;8.11;97.93
80620;BME280;69979;53.682;-2.690;2024-02-15T07:00:20;100051.09;;;8.02;97.99
80620;BME280;69979;53.682;-2.690;2024-02-15T07:02:45;100060.30;;;8.55;96.03
80620;BME280;69979;53.682;-2.690;2024-02-15T07:05:11;100059.68;;;9.12;93.46
80620;BME280;69979;53.682;-2.690;2024-02-15T07:07:36;100061.00;;;9.05;92.80
80620;BME280;69979;53.682;-2.690;2024-02-15T07:10:02;100060.70;;;9.32;91.67
80620;BME280;69979;53.682;-2.690;2024-02-15T07:12:27;100062.76;;;9.41;90.78
80620;BME280;69979;53.682;-2.690;2024-02-15T07:14:53;100057.45;;;9.27;90.94
80620;BME280;69979;53.682;-2.690;2024-02-15T07:17:19;100055.72;;;8.98;91.71
80620;BME280;69979;53.682;-2.690;2024-02-15T07:19:44;100054.34;;;9.80;90.36
80620;BME280;69979;53.682;-2.690;2024-02-15T07:22:10;100058.28;;;9.61;88.91
80620;BME280;69979;53.682;-2.690;2024-02-15T07:24:35;100054.15;;;9.74;89.08
80620;BME280;69979;53.682;-2.690;2024-02-15T07:27:01;100054.30;;;9.78;87.38
80620;BME280;69979;53.682;-2.690;2024-02-15T07:29:26;100044.58;;;10.29;85.61
80620;BME280;69979;53.682;-2.690;2024-02-15T07:31:52;100047.46;;;9.61;87.86
80620;BME280;69979;53.682;-2.690;2024-02-15T07:34:17;100049.94;;;8.77;90.77
80620;BME280;69979;53.682;-2.690;2024-02-15T07:36:43;100054.40;;;9.32;90.79
80620;BME280;69979;53.682;-2.690;2024-02-15T07:39:08;100052.97;;;8.82;91.74
80620;BME280;69979;53.682;-2.690;2024-02-15T07:41:34;100045.41;;;8.70;94.42
80620;BME280;69979;53.682;-2.690;2024-02-15T07:43:59;100040.63;;;8.52;95.08
80620;BME280;69979;53.682;-2.690;2024-02-15T07:46:24;100041.32;;;8.22;96.54
80620;BME280;69979;53.682;-2.690;2024-02-15T07:48:50;100044.56;;;8.43;95.82
80620;BME280;69979;53.682;-2.690;2024-02-15T07:51:17;100050.61;;;8.65;94.42
80620;BME280;69979;53.682;-2.690;2024-02-15T07:53:41;100050.21;;;8.73;95.24
80620;BME280;69979;53.682;-2.690;2024-02-15T07:56:06;100050.68;;;8.95;93.47
80620;BME280;69979;53.682;-2.690;2024-02-15T07:58:32;100050.61;;;9.30;91.71
80620;BME280;69979;53.682;-2.690;2024-02-15T08:00:57;100046.38;;;8.47;94.45
80620;BME280;69979;53.682;-2.690;2024-02-15T08:03:23;100053.65;;;8.27;95.30
80620;BME280;69979;53.682;-2.690;2024-02-15T08:05:49;100061.28;;;8.68;93.93
80620;BME280;69979;53.682;-2.690;2024-02-15T08:08:14;100061.35;;;9.02;93.28
80620;BME280;69979;53.682;-2.690;2024-02-15T08:10:40;100059.75;;;8.56;95.22
80620;BME280;69979;53.682;-2.690;2024-02-15T08:13:05;100059.23;;;8.78;94.08
80620;BME280;69979;53.682;-2.690;2024-02-15T08:15:31;100060.83;;;8.81;93.80
80620;BME280;69979;53.682;-2.690;2024-02-15T08:17:56;100060.94;;;8.92;94.10
80620;BME280;69979;53.682;-2.690;2024-02-15T08:20:22;100052.70;;;8.56;94.97
80620;BME280;69979;53.682;-2.690;2024-02-15T08:22:48;100055.02;;;9.02;94.49
80620;BME280;69979;53.682;-2.690;2024-02-15T08:25:14;100054.33;;;8.89;94.41
80620;BME280;69979;53.682;-2.690;2024-02-15T08:27:40;100054.92;;;8.91;94.23
80620;BME280;69979;53.682;-2.690;2024-02-15T08:30:05;100052.87;;;8.99;93.53
80620;BME280;69979;53.682;-2.690;2024-02-15T08:32:30;100051.35;;;9.08;93.62
80620;BME280;69979;53.682;-2.690;2024-02-15T08:34:55;100048.63;;;9.21;93.12
80620;BME280;69979;53.682;-2.690;2024-02-15T08:37:21;100041.41;;;9.17;92.69
80620;BME280;69979;53.682;-2.690;2024-02-15T08:39:46;100041.13;;;9.18;93.16
80620;BME280;69979;53.682;-2.690;2024-02-15T08:42:12;100037.49;;;8.77;94.92
80620;BME280;69979;53.682;-2.690;2024-02-15T08:44:38;100044.46;;;9.19;93.91
80620;BME280;69979;53.682;-2.690;2024-02-15T08:47:03;100036.58;;;8.94;95.20
80620;BME280;69979;53.682;-2.690;2024-02-15T08:49:28;100041.28;;;9.29;94.59
80620;BME280;69979;53.682;-2.690;2024-02-15T08:51:54;100038.89;;;9.20;93.45
80620;BME280;69979;53.682;-2.690;2024-02-15T08:54:19;100037.96;;;9.11;94.02
80620;BME280;69979;53.682;-2.690;2024-02-15T08:56:45;100041.78;;;9.19;93.58
80620;BME280;69979;53.682;-2.690;2024-02-15T08:59:10;100040.84;;;9.22;93.70
80620;BME280;69979;53.682;-2.690;2024-02-15T09:01:36;100036.60;;;9.25;94.19
80620;BME280;69979;53.682;-2.690;2024-02-15T09:04:01;100039.95;;;9.55;92.37
80620;BME280;69979;53.682;-2.690;2024-02-15T09:06:27;100039.46;;;9.56;92.03
80620;BME280;69979;53.682;-2.690;2024-02-15T09:08:52;100027.04;;;9.01;94.29
80620;BME280;69979;53.682;-2.690;2024-02-15T09:11:18;100026.97;;;8.63;96.26
80620;BME280;69979;53.682;-2.690;2024-02-15T09:13:43;100027.22;;;9.07;95.65
80620;BME280;69979;53.682;-2.690;2024-02-15T09:16:09;100023.25;;;9.39;94.24
80620;BME280;69979;53.682;-2.690;2024-02-15T09:18:34;100020.23;;;9.44;92.52
80620;BME280;69979;53.682;-2.690;2024-02-15T09:21:00;100020.51;;;9.63;92.11
80620;BME280;69979;53.682;-2.690;2024-02-15T09:23:25;100018.58;;;9.51;93.52
80620;BME280;69979;53.682;-2.690;2024-02-15T09:25:51;100013.21;;;8.95;95.15
80620;BME280;69979;53.682;-2.690;2024-02-15T09:28:16;100010.05;;;9.07;94.30
80620;BME280;69979;53.682;-2.690;2024-02-15T09:30:42;100008.19;;;9.71;92.99
80620;BME280;69979;53.682;-2.690;2024-02-15T09:33:08;99999.99;;;9.17;94.98
80620;BME280;69979;53.682;-2.690;2024-02-15T09:35:33;99997.61;;;8.90;96.41
80620;BME280;69979;53.682;-2.690;2024-02-15T09:37:59;100000.72;;;9.15;96.52
80620;BME280;69979;53.682;-2.690;2024-02-15T09:40:24;99996.12;;;8.64;97.13
80620;BME280;69979;53.682;-2.690;2024-02-15T09:42:50;99998.06;;;8.83;96.60
80620;BME280;69979;53.682;-2.690;2024-02-15T09:45:15;100004.26;;;9.55;95.19
80620;BME280;69979;53.682;-2.690;2024-02-15T09:47:41;99999.81;;;9.51;95.24
80620;BME280;69979;53.682;-2.690;2024-02-15T09:50:07;99992.48;;;9.21;95.65
80620;BME280;69979;53.682;-2.690;2024-02-15T09:52:33;99991.35;;;9.55;94.80
80620;BME280;69979;53.682;-2.690;2024-02-15T09:54:58;99992.32;;;9.44;94.70
80620;BME280;69979;53.682;-2.690;2024-02-15T09:57:23;99994.35;;;9.44;95.15
80620;BME280;69979;53.682;-2.690;2024-02-15T09:59:48;99991.19;;;9.76;92.91
80620;BME280;69979;53.682;-2.690;2024-02-15T10:02:14;99992.56;;;9.82;93.90
80620;BME280;69979;53.682;-2.690;2024-02-15T10:04:40;99989.71;;;9.21;95.40
80620;BME280;69979;53.682;-2.690;2024-02-15T10:07:05;99997.95;;;9.25;95.57
80620;BME280;69979;53.682;-2.690;2024-02-15T10:09:31;99994.93;;;9.54;93.40
80620;BME280;69979;53.682;-2.690;2024-02-15T10:11:56;99991.89;;;9.76;93.12
80620;BME280;69979;53.682;-2.690;2024-02-15T10:14:21;99997.13;;;9.31;95.69
80620;BME280;69979;53.682;-2.690;2024-02-15T10:16:47;99995.88;;;9.35;96.76
80620;BME280;69979;53.682;-2.690;2024-02-15T10:19:12;99996.69;;;9.88;94.32
80620;BME280;69979;53.682;-2.690;2024-02-15T10:21:37;100004.06;;;9.97;93.66
80620;BME280;69979;53.682;-2.690;2024-02-15T10:24:05;100004.30;;;10.22;91.98
80620;BME280;69979;53.682;-2.690;2024-02-15T10:26:29;100011.17;;;9.27;95.16
80620;BME280;69979;53.682;-2.690;2024-02-15T10:29:05;100008.74;;;9.30;96.08
80620;BME280;69979;53.682;-2.690;2024-02-15T10:31:20;100010.50;;;9.85;94.08
80620;BME280;69979;53.682;-2.690;2024-02-15T10:33:46;100012.67;;;9.93;93.81
80620;BME280;69979;53.682;-2.690;2024-02-15T10:36:12;100016.21;;;10.27;93.09
80620;BME280;69979;53.682;-2.690;2024-02-15T10:38:37;100020.42;;;10.73;90.78
80620;BME280;69979;53.682;-2.690;2024-02-15T10:41:03;100016.41;;;10.05;91.96
80620;BME280;69979;53.682;-2.690;2024-02-15T10:43:28;100020.37;;;10.47;90.99
80620;BME280;69979;53.682;-2.690;2024-02-15T10:45:55;100013.30;;;10.25;91.97
80620;BME280;69979;53.682;-2.690;2024-02-15T10:48:18;100011.64;;;10.55;90.93
80620;BME280;69979;53.682;-2.690;2024-02-15T10:50:45;100013.03;;;10.39;91.34
80620;BME280;69979;53.682;-2.690;2024-02-15T10:53:21;100009.30;;;10.41;90.99
80620;BME280;69979;53.682;-2.690;2024-02-15T10:55:38;100011.35;;;10.85;90.24
80620;BME280;69979;53.682;-2.690;2024-02-15T10:58:02;100013.32;;;11.10;89.06
80620;BME280;69979;53.682;-2.690;2024-02-15T11:00:27;100009.04;;;10.55;90.08
80620;BME280;69979;53.682;-2.690;2024-02-15T11:03:00;100009.10;;;11.03;89.51
80620;BME280;69979;53.682;-2.690;2024-02-15T11:05:17;100005.80;;;11.46;88.47
80620;BME280;69979;53.682;-2.690;2024-02-15T11:07:42;100008.01;;;11.13;88.52
80620;BME280;69979;53.682;-2.690;2024-02-15T11:10:09;100007.81;;;11.89;86.33
80620;BME280;69979;53.682;-2.690;2024-02-15T11:12:34;100008.29;;;12.19;84.47
80620;BME280;69979;53.682;-2.690;2024-02-15T11:14:59;100004.01;;;12.14;84.58
80620;BME280;69979;53.682;-2.690;2024-02-15T11:19:50;99994.22;;;12.96;81.53
80620;BME280;69979;53.682;-2.690;2024-02-15T11:22:16;99993.74;;;12.27;82.76
80620;BME280;69979;53.682;-2.690;2024-02-15T11:24:47;99994.82;;;12.13;84.27
80620;BME280;69979;53.682;-2.690;2024-02-15T11:27:07;99998.50;;;11.89;84.57
80620;BME280;69979;53.682;-2.690;2024-02-15T11:29:48;99991.04;;;12.31;82.97
80620;BME280;69979;53.682;-2.690;2024-02-15T11:31:58;99988.80;;;11.54;85.20
80620;BME280;69979;53.682;-2.690;2024-02-15T11:36:49;99983.88;;;12.38;84.90
80620;BME280;69979;53.682;-2.690;2024-02-15T11:41:40;99978.51;;;12.37;84.72
80620;BME280;69979;53.682;-2.690;2024-02-15T11:44:06;99981.75;;;12.46;83.40
80620;BME280;69979;53.682;-2.690;2024-02-15T11:46:31;99982.54;;;12.81;82.61
80620;BME280;69979;53.682;-2.690;2024-02-15T11:48:57;99982.71;;;12.36;82.51
80620;BME280;69979;53.682;-2.690;2024-02-15T11:51:27;99978.62;;;12.22;83.23
80620;BME280;69979;53.682;-2.690;2024-02-15T11:53:59;99974.60;;;12.16;85.64
80620;BME280;69979;53.682;-2.690;2024-02-15T11:56:12;99969.79;;;11.45;86.32
80620;BME280;69979;53.682;-2.690;2024-02-15T11:58:38;99962.76;;;11.54;87.13
80620;BME280;69979;53.682;-2.690;2024-02-15T12:01:03;99957.49;;;11.66;86.62
80620;BME280;69979;53.682;-2.690;2024-02-15T12:03:29;99952.62;;;11.25;87.12
80620;BME280;69979;53.682;-2.690;2024-02-15T12:05:55;99953.44;;;11.86;87.07
80620;BME280;69979;53.682;-2.690;2024-02-15T12:08:20;99950.83;;;12.35;84.39
80620;BME280;69979;53.682;-2.690;2024-02-15T12:13:10;99943.65;;;12.38;83.32
80620;BME280;69979;53.682;-2.690;2024-02-15T12:15:36;99936.47;;;12.81;82.65
80620;BME280;69979;53.682;-2.690;2024-02-15T12:18:14;99929.87;;;12.46;84.11
80620;BME280;69979;53.682;-2.690;2024-02-15T12:20:27;99930.73;;;12.24;84.63
80620;BME280;69979;53.682;-2.690;2024-02-15T12:22:53;99929.05;;;12.05;84.59
80620;BME280;69979;53.682;-2.690;2024-02-15T12:25:18;99930.19;;;11.55;86.55
80620;BME280;69979;53.682;-2.690;2024-02-15T12:27:44;99923.74;;;11.95;85.37
80620;BME280;69979;53.682;-2.690;2024-02-15T12:30:13;99925.84;;;12.27;85.42
80620;BME280;69979;53.682;-2.690;2024-02-15T12:32:34;99922.63;;;11.98;87.17
80620;BME280;69979;53.682;-2.690;2024-02-15T12:35:10;99916.37;;;11.91;87.64
80620;BME280;69979;53.682;-2.690;2024-02-15T12:37:26;99915.45;;;11.86;87.32
80620;BME280;69979;53.682;-2.690;2024-02-15T12:39:51;99913.64;;;11.52;87.85
80620;BME280;69979;53.682;-2.690;2024-02-15T12:42:16;99917.50;;;11.91;87.24
80620;BME280;69979;53.682;-2.690;2024-02-15T12:44:44;99912.15;;;11.24;89.36
80620;BME280;69979;53.682;-2.690;2024-02-15T12:47:07;99905.20;;;11.98;87.80
80620;BME280;69979;53.682;-2.690;2024-02-15T12:49:33;99904.03;;;12.00;87.09